Time;durP1;ratioP1;P1;durP2;ratioP2;P2;SDS_P1;SDS_P2;PMS_P1;PMS_P2;Temp;Humidity;BMP_temperature;BMP_pressure;BME280_temperature;BME280_humidity;BME280_pressure;Samples;Min_cycle;Max_cycle;Signal;HPM_P1;HPM_P2
2022/05/13 00:00:07;;;;;;;7.13;5.15;;;18.30;94.60;;;;;;5072276;28;20020;-92
2022/05/13 00:02:32;;;;;;;10.00;4.85;;;18.40;94.80;;;;;;5069926;28;20111;-92
2022/05/13 00:04:58;;;;;;;7.43;4.90;;;18.40;94.90;;;;;;5069763;28;20059;-92
2022/05/13 00:07:24;;;;;;;7.20;4.57;;;18.40;94.80;;;;;;5069785;28;20028;-93
2022/05/13 00:10:00;;;;;;;5.60;4.00;;;18.50;94.80;;;;;;5055785;28;20028;-93
2022/05/13 00:12:33;;;;;;;6.18;4.22;;;18.50;94.90;;;;;;5055710;28;20120;-93
2022/05/13 00:15:00;;;;;;;5.78;3.97;;;18.50;94.90;;;;;;5065050;28;20549;-93
2022/05/13 00:17:27;;;;;;;6.55;4.10;;;18.40;94.80;;;;;;5069825;28;20077;-94
2022/05/13 00:19:53;;;;;;;7.93;4.38;;;18.40;94.80;;;;;;5072460;28;20024;-93
2022/05/13 00:22:19;;;;;;;5.10;4.05;;;18.40;94.80;;;;;;5074503;28;20406;-93
2022/05/13 00:24:46;;;;;;;7.13;4.00;;;18.50;94.90;;;;;;5072292;28;20039;-93
2022/05/13 00:27:12;;;;;;;8.45;4.10;;;18.40;95.00;;;;;;5075631;28;20030;-91
2022/05/13 00:29:37;;;;;;;5.57;4.03;;;18.40;95.10;;;;;;5071233;28;20005;-92
2022/05/13 00:32:04;;;;;;;4.85;4.20;;;18.40;95.10;;;;;;5067556;28;20032;-93
2022/05/13 00:34:30;;;;;;;5.68;4.20;;;18.40;95.10;;;;;;5069712;28;20498;-92
2022/05/13 00:36:55;;;;;;;4.97;3.78;;;18.40;95.10;;;;;;5070768;28;20059;-92
2022/05/13 00:39:21;;;;;;;6.00;3.75;;;18.40;95.20;;;;;;5065400;28;20110;-92
2022/05/13 00:41:47;;;;;;;6.78;3.58;;;18.40;95.20;;;;;;5075499;28;20020;-92
2022/05/13 00:44:14;;;;;;;6.75;4.00;;;18.40;95.30;;;;;;5077265;28;20040;-92
2022/05/13 00:46:39;;;;;;;5.45;3.70;;;18.40;95.30;;;;;;5064863;28;20038;-91
2022/05/13 00:49:11;;;;;;;5.68;4.10;;;18.50;95.30;;;;;;5076487;28;20430;-90
2022/05/13 00:51:41;;;;;;;12.63;4.17;;;18.50;95.30;;;;;;5074439;28;20284;-91
2022/05/13 00:54:11;;;;;;;7.72;3.92;;;18.50;95.30;;;;;;5077471;28;20134;-92
2022/05/13 00:56:40;;;;;;;3.95;3.55;;;18.50;95.20;;;;;;5069717;28;20024;-91
2022/05/13 00:59:08;;;;;;;4.75;3.47;;;18.50;95.20;;;;;;5068791;28;20032;-91
2022/05/13 01:01:33;;;;;;;8.10;3.72;;;18.50;95.20;;;;;;5078584;28;20176;-91
2022/05/13 01:04:07;;;;;;;5.30;4.10;;;18.50;95.30;;;;;;5077454;28;20488;-91
2022/05/13 01:06:33;;;;;;;5.85;4.70;;;18.50;95.50;;;;;;5070077;28;20552;-91
2022/05/13 01:09:01;;;;;;;7.90;4.78;;;18.60;95.40;;;;;;5072171;28;20017;-91
2022/05/13 01:11:30;;;;;;;7.45;4.22;;;18.60;95.40;;;;;;5093050;28;20037;-91
2022/05/13 01:14:01;;;;;;;6.55;4.32;;;18.50;95.40;;;;;;5083470;28;20043;-91
2022/05/13 01:16:27;;;;;;;7.38;4.65;;;18.40;95.50;;;;;;5063485;28;20027;-91
2022/05/13 01:18:53;;;;;;;5.00;4.10;;;18.50;95.60;;;;;;5066905;28;20032;-91
2022/05/13 01:21:29;;;;;;;5.43;4.05;;;18.40;95.70;;;;;;5061079;28;20027;-91
2022/05/13 01:23:54;;;;;;;5.57;4.30;;;18.40;95.80;;;;;;5072892;28;20024;-91
2022/05/13 01:26:25;;;;;;;6.57;4.00;;;18.40;95.70;;;;;;5068947;28;20031;-92
2022/05/13 01:28:53;;;;;;;5.07;4.20;;;18.40;95.70;;;;;;5075853;28;20032;-91
2022/05/13 01:31:31;;;;;;;5.38;3.78;;;18.40;95.80;;;;;;5069053;28;20532;-91
2022/05/13 01:34:00;;;;;;;8.02;4.15;;;18.40;95.90;;;;;;5073035;28;20026;-91
2022/05/13 01:36:26;;;;;;;7.55;3.85;;;18.40;95.80;;;;;;5068551;28;20067;-92
2022/05/13 01:38:52;;;;;;;6.00;3.92;;;18.40;95.80;;;;;;5078254;28;20012;-91
2022/05/13 01:41:18;;;;;;;5.25;3.72;;;18.30;95.80;;;;;;5071106;28;20024;-92
2022/05/13 01:43:46;;;;;;;4.55;3.40;;;18.30;95.90;;;;;;5091218;28;20046;-92
2022/05/13 01:46:12;;;;;;;3.83;3.42;;;18.30;96.00;;;;;;5097413;28;20024;-91
2022/05/13 01:48:38;;;;;;;5.35;3.95;;;18.30;95.90;;;;;;5078447;28;20028;-91
2022/05/13 01:51:04;;;;;;;6.75;4.00;;;18.30;96.00;;;;;;5070353;28;20412;-91
2022/05/13 01:53:30;;;;;;;8.05;3.75;;;18.30;96.00;;;;;;5075020;28;20035;-93
2022/05/13 01:55:56;;;;;;;4.07;3.20;;;18.30;96.00;;;;;;5078301;28;20545;-92
2022/05/13 01:58:24;;;;;;;5.88;3.50;;;18.30;96.10;;;;;;5067508;28;20028;-91
2022/05/13 02:00:52;;;;;;;4.88;3.45;;;18.30;96.10;;;;;;5078269;28;20017;-91
2022/05/13 02:06:03;;;;;;;4.07;3.55;;;18.30;96.10;;;;;;5091538;28;20063;-91
2022/05/13 02:08:30;;;;;;;4.55;3.30;;;18.40;96.10;;;;;;5073201;28;20028;-91
2022/05/13 02:10:57;;;;;;;6.65;3.78;;;18.40;96.10;;;;;;5077719;28;20498;-90
2022/05/13 02:13:23;;;;;;;5.55;3.75;;;18.40;96.10;;;;;;5071961;28;20032;-91
2022/05/13 02:15:49;;;;;;;4.60;3.45;;;18.40;96.00;;;;;;5077064;28;20024;-91
2022/05/13 02:18:15;;;;;;;4.53;3.25;;;18.40;96.00;;;;;;5077019;28;20027;-91
2022/05/13 02:20:42;;;;;;;9.30;3.60;;;18.30;96.00;;;;;;5076312;28;20618;-91
2022/05/13 02:23:08;;;;;;;6.80;4.07;;;18.30;96.10;;;;;;5077521;28;20027;-91
2022/05/13 02:25:34;;;;;;;5.50;3.95;;;18.30;96.10;;;;;;5075766;28;20028;-91
2022/05/13 02:28:00;;;;;;;4.10;3.58;;;18.30;96.20;;;;;;5070073;28;20104;-91
2022/05/13 02:30:28;;;;;;;7.38;3.80;;;18.30;96.30;;;;;;5073010;28;20092;-91
2022/05/13 02:32:54;;;;;;;6.95;3.75;;;18.30;96.20;;;;;;5075585;28;20028;-91
2022/05/13 02:35:20;;;;;;;5.40;4.00;;;18.30;96.20;;;;;;5071939;28;20033;-91
2022/05/13 02:37:47;;;;;;;6.07;3.50;;;18.30;96.50;;;;;;5074107;28;20024;-92
2022/05/13 02:40:13;;;;;;;6.78;3.58;;;18.30;96.30;;;;;;5070440;28;20484;-92
2022/05/13 02:42:39;;;;;;;5.88;3.80;;;18.40;96.40;;;;;;5069379;28;20059;-91
2022/05/13 02:45:09;;;;;;;6.28;3.67;;;18.40;96.40;;;;;;5073244;28;20070;-91
2022/05/13 02:47:38;;;;;;;6.05;3.40;;;18.40;96.40;;;;;;5075940;28;20020;-91
2022/05/13 02:50:25;;;;;;;4.18;3.00;;;18.40;96.10;;;;;;5068372;28;20576;-91
2022/05/13 02:52:51;;;;;;;5.13;2.92;;;18.40;95.90;;;;;;5074906;28;20408;-91
2022/05/13 02:55:19;;;;;;;3.25;2.75;;;18.30;95.60;;;;;;5073329;28;20059;-92
2022/05/13 02:57:45;;;;;;;6.32;3.53;;;18.30;95.50;;;;;;5073196;28;20099;-92
2022/05/13 03:00:11;;;;;;;6.25;3.10;;;18.20;95.50;;;;;;5072240;28;20059;-93
2022/05/13 03:02:37;;;;;;;3.65;2.97;;;18.10;95.60;;;;;;5070452;28;20035;-91
2022/05/13 03:05:03;;;;;;;6.72;3.35;;;18.10;95.70;;;;;;5059233;28;20024;-91
2022/05/13 03:07:29;;;;;;;7.05;3.45;;;18.10;95.80;;;;;;5075616;28;20020;-92
2022/05/13 03:09:55;;;;;;;5.13;3.15;;;18.00;95.80;;;;;;5066772;28;20077;-92
2022/05/13 03:12:20;;;;;;;4.47;3.53;;;18.00;95.90;;;;;;5060734;28;20051;-92
2022/05/13 03:14:46;;;;;;;4.20;3.63;;;18.00;96.10;;;;;;5076062;28;20466;-92
2022/05/13 03:17:12;;;;;;;7.65;4.05;;;18.00;96.40;;;;;;5077574;28;20043;-92
2022/05/13 03:19:39;;;;;;;7.10;4.10;;;18.00;96.40;;;;;;5077266;28;20432;-92
2022/05/13 03:22:05;;;;;;;5.93;3.70;;;18.00;96.60;;;;;;5072936;28;20028;-92
2022/05/13 03:24:31;;;;;;;8.38;3.85;;;17.90;96.70;;;;;;5075876;28;20031;-93
2022/05/13 03:26:57;;;;;;;7.88;4.07;;;17.90;96.80;;;;;;5076398;28;20020;-91
2022/05/13 03:29:23;;;;;;;5.40;3.70;;;17.80;96.90;;;;;;5071684;28;20039;-92
2022/05/13 03:31:49;;;;;;;4.72;3.22;;;17.80;97.10;;;;;;5075840;28;20032;-91
2022/05/13 03:34:15;;;;;;;4.53;3.13;;;17.80;97.10;;;;;;5094771;28;20062;-92
2022/05/13 03:36:41;;;;;;;3.72;3.30;;;17.70;97.00;;;;;;5094639;28;20082;-92
2022/05/13 03:39:07;;;;;;;3.47;3.10;;;17.70;97.00;;;;;;5076709;28;20019;-91
2022/05/13 03:41:33;;;;;;;5.18;3.45;;;17.80;97.00;;;;;;5091924;28;20147;-92
2022/05/13 03:43:59;;;;;;;5.70;3.33;;;17.70;96.90;;;;;;5080251;28;20036;-91
2022/05/13 03:46:24;;;;;;;5.40;3.58;;;17.70;96.90;;;;;;5075261;28;20032;-91
2022/05/13 03:48:50;;;;;;;5.68;3.88;;;17.70;97.00;;;;;;5076527;28;20032;-92
2022/05/13 03:51:16;;;;;;;5.32;4.10;;;17.70;96.90;;;;;;5074971;28;20036;-92
2022/05/13 03:53:42;;;;;;;7.95;4.00;;;17.70;97.00;;;;;;5072218;28;20024;-92
2022/05/13 03:56:08;;;;;;;6.28;4.13;;;17.70;97.10;;;;;;5070019;28;20476;-92
2022/05/13 03:58:34;;;;;;;4.95;3.72;;;17.70;97.30;;;;;;5077361;28;20024;-91
2022/05/13 04:01:02;;;;;;;5.18;3.75;;;17.70;97.40;;;;;;5069385;28;20503;-91
2022/05/13 04:03:28;;;;;;;8.05;3.90;;;17.70;97.40;;;;;;5078080;28;20024;-92
2022/05/13 04:23:27;;;;;;;8.00;4.35;;;17.50;97.80;;;;;;5033756;28;20518;-88
2022/05/13 04:26:53;;;;;;;4.97;4.03;;;17.40;98.00;;;;;;5028447;28;20087;-88
2022/05/13 04:30:08;;;;;;;6.28;4.68;;;17.40;98.00;;;;;;4963680;28;20034;-87
2022/05/13 04:33:57;;;;;;;7.63;4.80;;;17.40;98.30;;;;;;4919085;29;20032;-87
2022/05/13 04:37:20;;;;;;;8.10;4.90;;;17.40;98.30;;;;;;4912789;29;20083;-87
2022/05/13 04:44:30;;;;;;;8.25;4.50;;;17.30;98.60;;;;;;4906846;29;20039;-87
2022/05/13 04:55:30;;;;;;;8.05;4.35;;;17.30;98.90;;;;;;4899659;29;20229;-88
2022/05/13 04:59:10;;;;;;;8.40;4.05;;;17.30;98.70;;;;;;4849063;29;20045;-87
2022/05/13 05:09:55;;;;;;;6.80;4.68;;;17.30;99.00;;;;;;4801532;29;20099;-87
2022/05/13 05:13:27;;;;;;;12.10;4.72;;;17.30;99.20;;;;;;4809124;29;20113;-87
2022/05/13 07:46:21;;;;;;;5.50;1.25;;;20.30;90.20;;;;;;5056849;22;20059;-92
2022/05/13 07:48:47;;;;;;;5.32;1.30;;;20.30;89.10;;;;;;5048415;28;20033;-86
2022/05/13 07:51:13;;;;;;;6.78;1.40;;;20.40;88.30;;;;;;5049788;28;20071;-86
2022/05/13 07:53:38;;;;;;;5.45;1.85;;;20.40;87.60;;;;;;5054683;28;20067;-86
2022/05/13 07:56:05;;;;;;;8.85;1.30;;;20.30;86.40;;;;;;5053267;28;20083;-86
2022/05/13 07:58:31;;;;;;;3.05;1.30;;;20.20;85.80;;;;;;5045855;28;20433;-86
2022/05/13 08:00:58;;;;;;;5.97;1.77;;;20.20;85.50;;;;;;5032928;28;20026;-86
2022/05/13 08:03:26;;;;;;;5.93;1.65;;;20.20;85.10;;;;;;5053424;28;20025;-85
2022/05/13 08:05:57;;;;;;;7.82;1.45;;;20.30;84.30;;;;;;5052839;28;20025;-86
2022/05/13 08:08:32;;;;;;;4.07;1.50;;;20.40;83.80;;;;;;5030823;28;20029;-86
2022/05/13 08:11:00;;;;;;;11.48;1.30;;;20.20;82.70;;;;;;5026126;28;20041;-86
2022/05/13 08:13:29;;;;;;;9.48;1.67;;;20.20;82.50;;;;;;5026635;28;20022;-86
2022/05/13 08:15:55;;;;;;;6.72;1.42;;;20.10;82.00;;;;;;5056351;28;20021;-86
2022/05/13 08:18:21;;;;;;;5.93;1.52;;;20.20;82.00;;;;;;5035381;28;20025;-86
2022/05/13 08:20:47;;;;;;;5.15;1.30;;;20.40;82.20;;;;;;5044732;28;20114;-86
2022/05/13 08:23:13;;;;;;;5.90;1.50;;;20.50;82.30;;;;;;5032173;28;20014;-86
2022/05/13 08:25:39;;;;;;;6.30;1.52;;;20.70;82.40;;;;;;5033715;28;20040;-86
2022/05/13 08:28:07;;;;;;;4.55;1.30;;;20.90;81.40;;;;;;5030714;28;20040;-85
2022/05/13 08:30:32;;;;;;;3.88;1.40;;;20.80;79.90;;;;;;5032805;28;20022;-86
2022/05/13 08:33:01;;;;;;;11.88;1.70;;;20.80;79.70;;;;;;5021977;28;20025;-86
2022/05/13 08:35:27;;;;;;;7.75;1.52;;;21.00;79.40;;;;;;5018672;28;20552;-86
2022/05/13 08:37:54;;;;;;;3.42;1.40;;;21.00;79.00;;;;;;5026687;28;20017;-86
2022/05/13 08:40:28;;;;;;;8.73;1.42;;;21.10;78.30;;;;;;5027820;28;20029;-86
2022/05/13 08:42:54;;;;;;;7.60;1.38;;;21.10;77.80;;;;;;5033217;28;20347;-86
2022/05/13 08:45:21;;;;;;;7.70;1.27;;;21.10;77.30;;;;;;5052168;28;20115;-86
2022/05/13 08:47:52;;;;;;;7.88;1.33;;;21.10;77.30;;;;;;5037961;28;20066;-86
2022/05/13 08:50:42;;;;;;;4.28;1.10;;;21.00;76.80;;;;;;5016620;28;20034;-86
2022/05/13 08:53:34;;;;;;;5.38;1.30;;;21.00;77.30;;;;;;5022440;28;20038;-86
2022/05/13 08:56:06;;;;;;;5.55;1.58;;;21.00;76.20;;;;;;5031880;28;20025;-86
2022/05/13 08:59:07;;;;;;;6.70;1.52;;;21.00;76.00;;;;;;5034240;28;20041;-86
2022/05/13 09:01:45;;;;;;;6.35;1.25;;;21.00;76.00;;;;;;5031372;28;20026;-86
2022/05/13 09:04:22;;;;;;;8.20;1.10;;;21.10;74.70;;;;;;5023684;28;20029;-86
2022/05/13 09:06:59;;;;;;;5.60;1.38;;;21.20;74.50;;;;;;5031360;28;20089;-86
2022/05/13 09:09:25;;;;;;;5.90;1.38;;;21.30;73.90;;;;;;5026490;28;20127;-87
2022/05/13 09:12:21;;;;;;;5.50;1.40;;;21.50;74.20;;;;;;5029533;28;20025;-86
2022/05/13 09:15:13;;;;;;;4.97;1.33;;;22.10;73.80;;;;;;5028925;28;20071;-86
2022/05/13 09:17:48;;;;;;;3.50;1.20;;;22.60;72.60;;;;;;5032471;28;20025;-87
2022/05/13 09:20:15;;;;;;;4.60;1.45;;;23.00;71.70;;;;;;5033877;28;20041;-87
2022/05/13 09:22:49;;;;;;;5.97;1.10;;;23.00;70.90;;;;;;5025947;28;20489;-87
2022/05/13 09:25:24;;;;;;;4.57;1.05;;;22.90;70.40;;;;;;5022687;28;20042;-86
2022/05/13 09:27:58;;;;;;;4.50;1.10;;;22.70;70.90;;;;;;5013727;28;20022;-86
2022/05/13 09:30:33;;;;;;;4.43;1.30;;;22.50;71.10;;;;;;5012813;28;20232;-86
2022/05/13 09:33:17;;;;;;;6.07;1.08;;;22.40;71.30;;;;;;5026064;28;20033;-87
2022/05/13 09:35:42;;;;;;;6.40;1.40;;;22.60;71.20;;;;;;5033178;28;20029;-86
2022/05/13 09:38:14;;;;;;;8.30;1.30;;;22.70;70.60;;;;;;5030099;28;20711;-87
2022/05/13 09:40:40;;;;;;;2.17;0.90;;;22.60;70.00;;;;;;5025854;28;20021;-87
2022/05/13 09:43:06;;;;;;;7.47;1.42;;;22.40;70.00;;;;;;5037142;28;20219;-87
2022/05/13 09:45:33;;;;;;;6.05;1.45;;;22.30;69.70;;;;;;5044772;28;20040;-87
2022/05/13 09:48:13;;;;;;;6.30;1.48;;;22.10;69.80;;;;;;5052668;28;20393;-86
2022/05/13 09:50:49;;;;;;;5.70;1.30;;;22.00;69.60;;;;;;5028901;28;20382;-86
2022/05/13 09:53:28;;;;;;;7.15;1.30;;;21.80;69.50;;;;;;5036374;28;20037;-86
2022/05/13 09:55:57;;;;;;;8.07;1.27;;;21.70;70.20;;;;;;5033807;28;20112;-85
2022/05/13 09:58:35;;;;;;;5.38;1.10;;;21.70;70.10;;;;;;5030883;28;20596;-87
2022/05/13 10:01:05;;;;;;;2.22;0.93;;;21.70;70.40;;;;;;5034006;28;20658;-86
2022/05/13 10:03:38;;;;;;;4.97;1.10;;;21.60;70.10;;;;;;5024575;28;20018;-87
2022/05/13 10:06:15;;;;;;;7.00;1.52;;;21.60;69.80;;;;;;5050848;22;20056;-86
2022/05/13 10:08:52;;;;;;;9.00;1.65;;;22.60;67.90;;;;;;5071077;28;20055;-88
2022/05/13 10:14:32;;;;;;;7.72;1.25;;;24.50;64.40;;;;;;5038987;28;20048;-88
2022/05/13 10:17:04;;;;;;;8.48;1.48;;;25.40;63.10;;;;;;5031450;28;20417;-87
2022/05/13 10:19:37;;;;;;;4.70;1.50;;;26.10;61.10;;;;;;5031485;28;20112;-89
2022/05/13 10:22:33;;;;;;;4.60;1.42;;;26.60;59.70;;;;;;5030946;28;20033;-89
2022/05/13 10:25:14;;;;;;;4.78;1.20;;;26.90;58.60;;;;;;5031547;28;20401;-89
2022/05/13 10:27:46;;;;;;;3.83;1.50;;;27.90;56.70;;;;;;5026044;28;20037;-88
2022/05/13 10:30:27;;;;;;;4.25;1.30;;;28.00;56.20;;;;;;5030980;28;20029;-88
2022/05/13 10:33:06;;;;;;;4.53;1.35;;;27.60;56.20;;;;;;5031216;28;20030;-89
2022/05/13 10:35:46;;;;;;;4.20;1.70;;;26.80;56.30;;;;;;5030326;28;20034;-88
2022/05/13 10:38:54;;;;;;;10.10;1.65;;;27.00;56.30;;;;;;5024562;28;20033;-88
2022/05/13 10:41:28;;;;;;;7.82;1.63;;;26.00;56.50;;;;;;5017530;28;20414;-89
2022/05/13 10:44:23;;;;;;;3.38;1.45;;;25.40;57.90;;;;;;5031633;28;20022;-87
2022/05/13 10:47:04;;;;;;;4.97;1.40;;;24.70;58.40;;;;;;5031635;28;20382;-87
2022/05/13 10:49:37;;;;;;;5.25;1.67;;;24.30;59.10;;;;;;5024428;28;20535;-89
2022/05/13 10:52:21;;;;;;;5.20;1.83;;;24.40;59.80;;;;;;5028991;28;20026;-89
2022/05/13 10:55:11;;;;;;;8.68;1.75;;;24.70;59.40;;;;;;5029472;28;20029;-89
2022/05/13 10:57:56;;;;;;;5.72;1.27;;;24.80;58.90;;;;;;5021439;28;20022;-86
2022/05/13 11:00:33;;;;;;;4.40;1.90;;;24.40;58.40;;;;;;5026075;28;20029;-88
2022/05/13 11:03:14;;;;;;;5.97;1.58;;;24.30;58.80;;;;;;5043902;28;20083;-89
2022/05/13 11:05:46;;;;;;;4.63;1.40;;;24.40;59.40;;;;;;5042178;28;20390;-88
2022/05/13 11:08:42;;;;;;;4.85;1.20;;;24.80;59.60;;;;;;5038381;28;20284;-89
2022/05/13 11:11:33;;;;;;;3.63;1.17;;;25.10;59.80;;;;;;5027252;28;20057;-88
2022/05/13 11:14:32;;;;;;;10.20;1.73;;;25.30;59.70;;;;;;5037934;28;20022;-89
2022/05/13 11:17:04;;;;;;;5.68;1.30;;;25.20;59.40;;;;;;5046243;28;20041;-88
2022/05/13 11:20:03;;;;;;;8.10;1.77;;;25.00;59.10;;;;;;5037580;28;20021;-89
2022/05/13 11:22:36;;;;;;;6.65;1.15;;;25.10;59.10;;;;;;5030491;28;20170;-89
2022/05/13 11:28:16;;;;;;;2.97;1.05;;;25.10;58.90;;;;;;5015927;28;20548;-89
2022/05/13 11:30:59;;;;;;;9.20;1.50;;;25.00;59.40;;;;;;5025686;28;20030;-89
2022/05/13 11:33:46;;;;;;;3.40;1.55;;;24.90;58.00;;;;;;5031109;28;20102;-88
2022/05/13 11:36:35;;;;;;;8.10;1.17;;;24.80;58.10;;;;;;5030007;28;20029;-88
2022/05/13 11:39:13;;;;;;;11.25;1.50;;;24.70;57.40;;;;;;5030387;28;20068;-89
2022/05/13 11:41:54;;;;;;;3.00;1.40;;;24.60;57.00;;;;;;5033669;28;20029;-86
2022/05/13 11:44:30;;;;;;;4.22;1.50;;;24.40;56.50;;;;;;5042701;28;20026;-87
2022/05/13 11:47:08;;;;;;;4.47;1.35;;;24.30;56.40;;;;;;5043918;28;20021;-86
2022/05/13 11:49:36;;;;;;;5.82;1.48;;;24.10;56.90;;;;;;5028778;28;20049;-87
2022/05/13 11:52:11;;;;;;;4.60;1.52;;;24.10;57.30;;;;;;5026004;28;20288;-88
2022/05/13 11:54:38;;;;;;;3.25;1.35;;;24.00;57.00;;;;;;5025443;28;20030;-88
2022/05/13 11:57:24;;;;;;;8.48;2.58;;;24.00;57.30;;;;;;5028065;28;20048;-89
2022/05/13 12:00:09;;;;;;;8.25;2.28;;;23.80;56.60;;;;;;5030003;28;20025;-89
2022/05/13 12:03:16;;;;;;;11.63;2.40;;;23.70;57.60;;;;;;5023072;28;20113;-88
2022/05/13 12:06:07;;;;;;;8.38;2.22;;;23.90;58.40;;;;;;5008948;28;20049;-89
2022/05/13 12:08:59;;;;;;;3.17;1.17;;;24.10;58.80;;;;;;4987989;28;20025;-88
2022/05/13 12:11:42;;;;;;;3.88;1.52;;;24.40;58.40;;;;;;5021703;28;20037;-88
2022/05/13 12:14:32;;;;;;;5.60;1.30;;;24.60;57.30;;;;;;5021904;28;20076;-89
2022/05/13 12:17:06;;;;;;;5.13;1.60;;;24.70;57.10;;;;;;5030557;28;20125;-89
2022/05/13 12:19:37;;;;;;;5.88;1.50;;;24.60;56.40;;;;;;5027983;28;20018;-88
2022/05/13 12:22:25;;;;;;;4.07;1.33;;;24.80;56.40;;;;;;5011848;28;20505;-87
2022/05/13 12:24:59;;;;;;;6.43;1.30;;;24.80;56.20;;;;;;5025180;28;20037;-89
2022/05/13 12:27:38;;;;;;;5.20;1.63;;;24.80;56.80;;;;;;5029513;28;20030;-88
2022/05/13 12:30:31;;;;;;;5.43;1.60;;;25.00;56.60;;;;;;5027981;28;20036;-89
2022/05/13 12:33:24;;;;;;;2.22;1.05;;;25.10;56.10;;;;;;5030594;28;20664;-89
2022/05/13 12:39:09;;;;;;;5.68;1.50;;;25.10;56.00;;;;;;5029829;28;20028;-91
2022/05/13 12:41:44;;;;;;;2.70;1.20;;;25.30;55.80;;;;;;5023284;28;20116;-92
2022/05/13 12:44:10;;;;;;;4.50;1.33;;;25.20;54.90;;;;;;5033705;28;20014;-89
2022/05/13 12:46:46;;;;;;;7.25;1.60;;;25.00;55.00;;;;;;5030332;28;20080;-90
2022/05/13 12:49:23;;;;;;;5.60;1.27;;;24.90;55.60;;;;;;5033225;28;20026;-89
2022/05/13 12:52:14;;;;;;;4.25;1.20;;;24.80;55.20;;;;;;5032958;28;20112;-90
2022/05/13 12:55:18;;;;;;;4.32;1.45;;;24.80;56.80;;;;;;5033691;28;20022;-89
2022/05/13 12:58:05;;;;;;;4.03;1.10;;;24.80;55.80;;;;;;5027787;28;20068;-88
2022/05/13 13:01:03;;;;;;;4.72;0.93;;;24.80;55.20;;;;;;5024081;28;20038;-87
2022/05/13 13:06:49;;;;;;;4.47;1.08;;;24.80;55.40;;;;;;5016749;28;20549;-89
2022/05/13 13:09:30;;;;;;;5.35;1.20;;;24.80;55.10;;;;;;5032248;28;20080;-88
2022/05/13 13:12:31;;;;;;;;;;;;;;;;;;;;;
2022/05/13 13:15:14;;;;;;;6.15;1.20;;;24.50;54.50;;;;;;5027940;28;20030;-87
2022/05/13 13:18:17;;;;;;;7.88;0.95;;;24.50;55.50;;;;;;5027587;28;20104;-87
2022/05/13 13:20:58;;;;;;;;;;;24.40;54.90;;;;;;5026682;28;20067;-86
2022/05/13 13:23:34;;;;;;;3.85;1.00;;;24.40;55.70;;;;;;5052391;28;19901;-88
2022/05/13 13:57:13;;;;;;;3.90;1.02;;;23.80;53.80;;;;;;5071600;28;20044;-88
2022/05/13 13:59:44;;;;;;;;;;;23.80;53.80;;;;;;5054445;28;20032;-87
2022/05/13 14:02:11;;;;;;;1.77;0.80;;;23.80;54.60;;;;;;5052201;28;19962;-88
2022/05/13 14:04:47;;;;;;;3.70;0.75;;;23.80;54.40;;;;;;5039415;28;20067;-87
2022/05/13 14:07:16;;;;;;;4.28;0.85;;;23.70;53.70;;;;;;5034123;28;20116;-88
2022/05/13 14:09:45;;;;;;;3.78;1.10;;;23.60;53.50;;;;;;5043486;28;20397;-86
2022/05/13 14:12:22;;;;;;;4.97;1.13;;;23.50;53.70;;;;;;5035309;28;20075;-88
2022/05/13 14:14:53;;;;;;;5.65;0.90;;;23.50;53.60;;;;;;5049037;28;20029;-86
2022/05/13 14:17:22;;;;;;;2.97;0.60;;;23.50;53.60;;;;;;5023456;28;20052;-87
2022/05/13 14:19:55;;;;;;;1.55;0.70;;;23.50;53.40;;;;;;5039221;28;20029;-87
2022/05/13 14:22:20;;;;;;;2.55;1.00;;;23.50;53.40;;;;;;5053120;28;20044;-87
2022/05/13 14:24:48;;;;;;;1.73;0.70;;;23.50;53.10;;;;;;5028631;28;20018;-87
2022/05/13 14:27:26;;;;;;;5.43;1.10;;;23.60;53.50;;;;;;5032797;28;20028;-87
2022/05/13 14:30:06;;;;;;;5.68;1.10;;;23.60;53.30;;;;;;5044684;28;20060;-88
2022/05/13 14:32:36;;;;;;;4.05;0.73;;;23.60;53.00;;;;;;5026468;28;20156;-86
2022/05/13 14:35:13;;;;;;;2.28;0.80;;;23.60;52.80;;;;;;5033093;28;20117;-87
2022/05/13 14:37:50;;;;;;;5.72;3.22;;;23.60;53.10;;;;;;5032493;28;20021;-86
2022/05/13 14:40:20;;;;;;;4.78;0.82;;;23.60;52.80;;;;;;5033999;28;20021;-86
2022/05/13 14:42:50;;;;;;;2.45;0.80;;;23.50;52.40;;;;;;5050929;28;20028;-88
2022/05/13 14:45:36;;;;;;;5.40;1.33;;;23.40;52.10;;;;;;5051212;28;20052;-87
2022/05/13 14:48:15;;;;;;;4.13;1.15;;;23.40;52.10;;;;;;5052371;28;20036;-87
2022/05/13 14:50:45;;;;;;;2.35;1.13;;;23.30;52.50;;;;;;5052297;28;20085;-87
2022/05/13 14:53:17;;;;;;;1.77;0.63;;;23.40;52.70;;;;;;5048986;28;20417;-87
2022/05/13 14:55:50;;;;;;;4.50;1.02;;;23.40;53.10;;;;;;5029964;28;20166;-86
2022/05/13 14:58:23;;;;;;;2.55;0.85;;;23.30;52.70;;;;;;5031337;28;20033;-84
2022/05/13 15:00:50;;;;;;;5.85;1.00;;;23.30;52.70;;;;;;5029637;28;20029;-84
2022/05/13 15:03:46;;;;;;;2.42;0.80;;;23.30;52.60;;;;;;5035778;28;20108;-84
2022/05/13 15:06:27;;;;;;;4.00;1.00;;;23.30;53.10;;;;;;5021056;28;20033;-84
2022/05/13 15:08:58;;;;;;;1.23;0.52;;;23.30;52.60;;;;;;5046806;28;20152;-80
2022/05/13 15:11:23;;;;;;;5.35;0.90;;;23.30;52.80;;;;;;5044489;28;20036;-84
2022/05/13 15:13:49;;;;;;;3.92;1.00;;;23.30;52.90;;;;;;5042073;28;20041;-85
2022/05/13 15:16:20;;;;;;;2.83;0.98;;;23.30;52.80;;;;;;5050855;28;20715;-85
2022/05/13 15:18:46;;;;;;;3.38;0.85;;;23.30;52.40;;;;;;5033244;28;20049;-84
2022/05/13 15:21:12;;;;;;;2.38;0.60;;;23.30;52.60;;;;;;5033145;28;20025;-81
2022/05/13 15:23:38;;;;;;;2.05;0.70;;;23.30;52.60;;;;;;5032184;28;20029;-82
2022/05/13 15:26:04;;;;;;;1.77;0.80;;;23.30;52.50;;;;;;5032710;28;20025;-84
2022/05/13 15:28:30;;;;;;;2.08;0.85;;;23.30;51.80;;;;;;5033498;28;20068;-85
2022/05/13 15:30:56;;;;;;;4.45;0.80;;;23.20;51.70;;;;;;5051091;28;20104;-85
2022/05/13 15:33:24;;;;;;;2.38;0.90;;;23.20;51.70;;;;;;5031974;28;20032;-84
2022/05/13 15:35:51;;;;;;;2.17;0.65;;;23.10;51.60;;;;;;5048603;28;20508;-84
2022/05/13 15:38:17;;;;;;;2.13;0.80;;;23.10;51.50;;;;;;5047512;28;20064;-85
2022/05/13 15:40:42;;;;;;;2.13;0.73;;;23.10;51.60;;;;;;5050836;28;20056;-84
2022/05/13 15:43:08;;;;;;;3.50;1.08;;;23.20;51.40;;;;;;5049294;28;20044;-84
2022/05/13 15:45:38;;;;;;;6.75;0.70;;;23.20;51.60;;;;;;5050715;28;20159;-83
2022/05/13 15:48:07;;;;;;;4.43;1.00;;;23.20;51.10;;;;;;5050916;28;20551;-84
2022/05/13 15:53:18;;;;;;;4.20;0.95;;;23.10;51.30;;;;;;5049788;28;20536;-85
2022/05/13 15:55:48;;;;;;;1.95;0.82;;;23.10;51.90;;;;;;5033149;28;20032;-85
2022/05/13 15:58:19;;;;;;;5.43;1.15;;;23.10;51.10;;;;;;5051779;28;20473;-85
2022/05/13 16:00:45;;;;;;;3.25;1.30;;;23.10;51.00;;;;;;5032164;28;20028;-86
2022/05/13 16:03:11;;;;;;;6.18;1.50;;;23.10;51.40;;;;;;5023786;28;20398;-85
2022/05/13 16:08:09;;;;;;;2.00;0.82;;;23.00;51.20;;;;;;5084036;22;20045;-87
2022/05/13 16:10:36;;;;;;;3.13;1.50;;;23.00;51.00;;;;;;5039177;28;20525;-86
2022/05/13 16:13:21;;;;;;;4.40;1.27;;;23.00;51.30;;;;;;5064127;28;20033;-86
2022/05/13 16:15:57;;;;;;;7.45;1.17;;;22.90;51.20;;;;;;5060018;28;20024;-87
2022/05/13 16:18:27;;;;;;;2.40;0.70;;;22.90;51.60;;;;;;5057012;28;20398;-86
2022/05/13 16:20:55;;;;;;;3.67;1.10;;;22.90;51.60;;;;;;5057626;28;20021;-87
2022/05/13 16:23:25;;;;;;;2.67;1.02;;;22.90;52.00;;;;;;5058964;28;20029;-87
2022/05/13 16:25:53;;;;;;;3.97;0.88;;;23.00;52.00;;;;;;5059121;28;20427;-87
2022/05/13 16:28:19;;;;;;;2.55;0.90;;;23.00;51.80;;;;;;5056898;28;20021;-87
2022/05/13 16:30:45;;;;;;;5.30;0.82;;;22.90;51.60;;;;;;5058147;28;20427;-87
2022/05/13 16:33:11;;;;;;;3.33;1.48;;;22.80;51.20;;;;;;5061317;28;20032;-87
2022/05/13 16:35:37;;;;;;;6.03;1.58;;;22.70;51.60;;;;;;5060100;28;20025;-87
2022/05/13 16:38:03;;;;;;;2.20;1.30;;;22.80;51.90;;;;;;5061869;28;20021;-87
2022/05/13 16:40:33;;;;;;;2.75;0.80;;;22.70;52.00;;;;;;5061379;28;20406;-87
2022/05/13 16:42:59;;;;;;;7.35;1.67;;;22.70;51.70;;;;;;5061388;28;20029;-86
2022/05/13 16:45:25;;;;;;;3.97;1.30;;;22.70;52.10;;;;;;5060360;28;20025;-86
2022/05/13 16:47:52;;;;;;;4.72;0.90;;;22.80;52.50;;;;;;5053170;28;20045;-86
2022/05/13 16:50:20;;;;;;;5.20;0.80;;;22.80;51.80;;;;;;5039995;28;20029;-87
2022/05/13 16:52:45;;;;;;;3.88;1.10;;;22.80;51.90;;;;;;5058734;28;20025;-87
2022/05/13 16:55:14;;;;;;;3.35;0.90;;;22.80;51.60;;;;;;5060375;28;20046;-87
2022/05/13 16:57:39;;;;;;;4.13;0.73;;;22.70;51.40;;;;;;5059955;28;20036;-86
2022/05/13 17:00:14;;;;;;;3.70;0.90;;;22.60;51.70;;;;;;5058267;28;20036;-86
2022/05/13 17:02:40;;;;;;;5.30;1.25;;;22.60;51.50;;;;;;5057511;28;20028;-86
2022/05/13 17:05:08;;;;;;;3.08;0.95;;;22.50;51.30;;;;;;5058248;28;20099;-88
2022/05/13 17:07:35;;;;;;;2.90;1.10;;;22.40;51.60;;;;;;5057747;28;20032;-87
2022/05/13 17:18:14;;;;;;;10.20;1.13;;;22.20;50.90;;;;;;5046837;28;20032;-86
2022/05/13 17:20:39;;;;;;;3.35;0.70;;;22.20;51.00;;;;;;5053307;28;20108;-87
2022/05/13 17:23:05;;;;;;;7.40;1.58;;;22.20;50.90;;;;;;5043359;28;20042;-87
2022/05/13 17:25:31;;;;;;;3.55;0.80;;;22.10;50.90;;;;;;5037902;28;20029;-87
2022/05/13 17:28:00;;;;;;;1.95;0.65;;;22.10;50.80;;;;;;5051700;28;20025;-87